Time;durP1;ratioP1;P1;durP2;ratioP2;P2;SDS_P1;SDS_P2;PMS_P1;PMS_P2;Temp;Humidity;BMP_temperature;BMP_pressure;BME280_temperature;BME280_humidity;BME280_pressure;Samples;Min_cycle;Max_cycle;Signal;HPM_P1;HPM_P2
2021/10/26 00:00:53;;;;;;;2.92;1.88;;;12.90;78.60;;;;;;4986898;28;20085;-80
2021/10/26 00:03:19;;;;;;;4.07;1.52;;;12.90;78.60;;;;;;4986801;28;20046;-78
2021/10/26 00:05:45;;;;;;;2.97;1.13;;;12.90;78.70;;;;;;4987712;28;20023;-81
2021/10/26 00:08:11;;;;;;;5.88;2.08;;;12.90;78.70;;;;;;4988799;28;20541;-78
2021/10/26 00:10:37;;;;;;;2.95;1.17;;;12.90;78.70;;;;;;5006914;28;20092;-78
2021/10/26 00:13:03;;;;;;;3.28;1.35;;;12.90;78.70;;;;;;5018237;28;20093;-77
2021/10/26 00:15:29;;;;;;;3.03;1.10;;;12.90;78.80;;;;;;4987219;28;20033;-79
2021/10/26 00:17:55;;;;;;;2.88;1.50;;;12.80;78.60;;;;;;5004453;28;20038;-79
2021/10/26 00:20:21;;;;;;;4.28;1.75;;;12.80;78.60;;;;;;5001814;28;20030;-76
2021/10/26 00:22:47;;;;;;;3.65;1.92;;;12.80;78.70;;;;;;4985983;28;20034;-81
2021/10/26 00:25:13;;;;;;;3.35;1.42;;;12.80;78.70;;;;;;4988056;28;20553;-81
2021/10/26 00:27:39;;;;;;;5.43;1.77;;;12.80;78.70;;;;;;4985576;28;20133;-80
2021/10/26 00:30:06;;;;;;;3.17;1.73;;;12.80;78.80;;;;;;5019052;28;20123;-82
2021/10/26 00:32:33;;;;;;;4.47;1.38;;;12.70;78.70;;;;;;5006713;28;20104;-82
2021/10/26 00:35:00;;;;;;;4.32;1.52;;;12.70;78.70;;;;;;4990847;28;20038;-83
2021/10/26 00:37:26;;;;;;;3.22;1.77;;;12.70;78.80;;;;;;4989328;28;20556;-82
2021/10/26 00:39:52;;;;;;;6.45;2.20;;;12.70;78.80;;;;;;4989118;28;20041;-81
2021/10/26 00:42:18;;;;;;;2.25;1.25;;;12.70;78.80;;;;;;4990955;28;20031;-82
2021/10/26 00:44:47;;;;;;;2.28;1.10;;;12.70;78.90;;;;;;4989727;28;20482;-82
2021/10/26 00:47:14;;;;;;;1.90;1.00;;;12.70;78.80;;;;;;5017677;28;20034;-78
2021/10/26 00:49:40;;;;;;;1.92;1.30;;;12.70;78.90;;;;;;4996811;28;20046;-80
2021/10/26 00:52:06;;;;;;;3.65;1.20;;;12.70;78.90;;;;;;5011676;28;20034;-83
2021/10/26 00:54:34;;;;;;;3.42;1.10;;;12.70;78.90;;;;;;4993770;28;20134;-81
2021/10/26 00:57:08;;;;;;;2.90;1.40;;;12.60;78.70;;;;;;4991292;28;20089;-81
2021/10/26 00:59:34;;;;;;;1.38;1.10;;;12.60;78.70;;;;;;5004214;28;20038;-81
2021/10/26 01:02:01;;;;;;;1.98;1.00;;;12.60;78.80;;;;;;4973042;28;20042;-79
2021/10/26 01:04:29;;;;;;;5.22;1.75;;;12.60;78.80;;;;;;5005255;28;20492;-78
2021/10/26 01:06:56;;;;;;;3.60;1.60;;;12.60;78.90;;;;;;4989430;28;20637;-80
2021/10/26 01:09:25;;;;;;;3.50;1.10;;;12.60;79.00;;;;;;4990287;28;20430;-81
2021/10/26 01:11:52;;;;;;;3.65;1.45;;;12.60;79.00;;;;;;4988341;28;20117;-76
2021/10/26 01:14:18;;;;;;;4.00;1.85;;;12.60;79.00;;;;;;4988911;28;20031;-82
2021/10/26 01:16:45;;;;;;;3.67;1.20;;;12.60;79.00;;;;;;4997774;28;20037;-82
2021/10/26 01:19:14;;;;;;;4.18;1.42;;;12.60;79.00;;;;;;4998762;28;20080;-80
2021/10/26 01:21:41;;;;;;;2.30;1.30;;;12.60;79.00;;;;;;4989450;28;20372;-78
2021/10/26 01:24:07;;;;;;;3.40;1.30;;;12.60;79.00;;;;;;5002450;28;20088;-82
2021/10/26 01:26:34;;;;;;;4.18;1.48;;;12.50;78.90;;;;;;4994495;28;20489;-83
2021/10/26 01:29:00;;;;;;;2.72;0.90;;;12.50;78.90;;;;;;5003611;28;20030;-80
2021/10/26 01:31:30;;;;;;;3.15;1.30;;;12.50;78.90;;;;;;4987805;28;20445;-80
2021/10/26 01:34:16;;;;;;;1.95;1.25;;;12.50;78.90;;;;;;4986654;28;20045;-79
2021/10/26 01:36:42;;;;;;;2.95;1.02;;;12.50;78.90;;;;;;4993941;28;20031;-80
2021/10/26 01:39:08;;;;;;;6.15;1.38;;;12.50;78.90;;;;;;4995511;28;20065;-75
2021/10/26 01:41:36;;;;;;;1.33;0.80;;;12.50;79.00;;;;;;4996276;28;20038;-77
2021/10/26 01:44:02;;;;;;;2.60;1.10;;;12.40;78.70;;;;;;4995901;28;20046;-79
2021/10/26 01:46:30;;;;;;;2.88;1.10;;;12.40;78.70;;;;;;4998764;28;20375;-80
2021/10/26 01:48:56;;;;;;;2.00;1.15;;;12.40;78.70;;;;;;5010872;28;20085;-81
2021/10/26 01:51:22;;;;;;;3.50;1.25;;;12.40;78.80;;;;;;4994160;28;20034;-80
2021/10/26 01:53:49;;;;;;;1.90;0.90;;;12.40;78.80;;;;;;4995414;28;20033;-83
2021/10/26 01:56:15;;;;;;;2.30;1.00;;;12.40;78.90;;;;;;4997320;28;20485;-81
2021/10/26 01:58:55;;;;;;;3.20;1.10;;;12.40;78.90;;;;;;4996479;28;20030;-81
2021/10/26 02:01:31;;;;;;;3.25;1.63;;;12.40;78.90;;;;;;4995058;28;20506;-80
2021/10/26 02:03:57;;;;;;;4.63;1.27;;;12.40;79.00;;;;;;4998169;28;20070;-83
2021/10/26 02:06:27;;;;;;;2.63;1.15;;;12.40;79.00;;;;;;4998463;28;20113;-83
2021/10/26 02:08:53;;;;;;;2.72;0.90;;;12.40;79.00;;;;;;4999320;28;20045;-82
2021/10/26 02:11:19;;;;;;;3.72;1.27;;;12.30;78.90;;;;;;4997690;28;20027;-76
2021/10/26 02:13:47;;;;;;;2.65;1.35;;;12.30;78.90;;;;;;4966659;28;20087;-83
2021/10/26 02:16:13;;;;;;;3.42;0.95;;;12.30;78.90;;;;;;5008430;28;20064;-82
2021/10/26 02:18:39;;;;;;;3.95;1.00;;;12.30;78.90;;;;;;5032553;28;20157;-83
2021/10/26 02:21:05;;;;;;;2.38;1.00;;;12.30;78.90;;;;;;5032061;28;20500;-81
2021/10/26 02:23:32;;;;;;;3.10;1.42;;;12.30;78.90;;;;;;5015211;28;20053;-80
2021/10/26 02:25:58;;;;;;;2.20;1.35;;;12.30;78.90;;;;;;5016338;28;20109;-81
2021/10/26 02:28:24;;;;;;;3.45;1.27;;;12.30;78.90;;;;;;5002669;28;20148;-83
2021/10/26 02:30:51;;;;;;;2.20;1.00;;;12.30;79.00;;;;;;4993374;28;20073;-82
2021/10/26 02:33:18;;;;;;;2.75;1.02;;;12.30;79.00;;;;;;4995270;28;20430;-82
2021/10/26 02:35:44;;;;;;;2.13;1.13;;;12.20;78.80;;;;;;5009172;28;20038;-82
2021/10/26 02:38:11;;;;;;;3.55;1.10;;;12.20;78.90;;;;;;4992119;28;20038;-83
2021/10/26 02:40:37;;;;;;;1.63;1.27;;;12.20;78.90;;;;;;4993518;28;20431;-84
2021/10/26 02:43:03;;;;;;;2.38;1.25;;;12.20;78.90;;;;;;4992832;28;20120;-82
2021/10/26 02:45:31;;;;;;;2.28;1.30;;;12.20;78.90;;;;;;5008815;28;20049;-82
2021/10/26 02:47:59;;;;;;;1.67;0.80;;;12.20;78.90;;;;;;5010539;28;20068;-82
2021/10/26 02:50:26;;;;;;;3.40;1.30;;;12.20;79.00;;;;;;5028607;28;20037;-81
2021/10/26 02:52:52;;;;;;;6.32;1.10;;;12.20;79.00;;;;;;5013423;28;20036;-82
2021/10/26 02:55:18;;;;;;;2.90;1.35;;;12.20;79.10;;;;;;5013696;28;20026;-81
2021/10/26 02:57:46;;;;;;;3.45;1.15;;;12.20;79.10;;;;;;5036684;28;20034;-81
2021/10/26 03:00:12;;;;;;;3.78;1.40;;;12.20;79.10;;;;;;5027686;28;20029;-82
2021/10/26 03:02:39;;;;;;;3.53;1.48;;;12.20;79.10;;;;;;5026618;28;20038;-81
2021/10/26 03:05:07;;;;;;;1.30;0.80;;;12.20;79.10;;;;;;5028077;28;20069;-79
2021/10/26 03:07:45;;;;;;;5.07;1.45;;;12.20;79.10;;;;;;5029477;28;20502;-82
2021/10/26 03:10:12;;;;;;;1.80;1.52;;;12.10;79.00;;;;;;5020166;28;20030;-80
2021/10/26 03:12:39;;;;;;;2.78;0.90;;;12.20;79.20;;;;;;5042821;28;20072;-83
2021/10/26 03:15:07;;;;;;;2.38;0.93;;;12.20;79.20;;;;;;5029579;28;20022;-84
2021/10/26 03:17:34;;;;;;;2.55;1.10;;;12.20;79.20;;;;;;4995314;28;20025;-81
2021/10/26 03:20:10;;;;;;;1.88;1.40;;;12.20;79.20;;;;;;5007292;28;20014;-79
2021/10/26 03:22:37;;;;;;;2.72;1.20;;;12.20;79.20;;;;;;5008663;28;20038;-84
2021/10/26 03:25:05;;;;;;;1.58;1.10;;;12.20;79.20;;;;;;5024435;28;20034;-83
2021/10/26 03:27:31;;;;;;;3.10;1.10;;;12.20;79.20;;;;;;5021244;28;20069;-84
2021/10/26 03:29:57;;;;;;;1.92;1.00;;;12.10;79.00;;;;;;5007737;28;20030;-84
2021/10/26 03:32:23;;;;;;;3.90;1.10;;;12.20;79.20;;;;;;5007404;28;20030;-83
2021/10/26 03:35:09;;;;;;;2.22;1.10;;;12.20;79.20;;;;;;5018442;28;20045;-82
2021/10/26 03:37:40;;;;;;;4.18;1.13;;;12.10;79.10;;;;;;4992043;28;20027;-82
2021/10/26 03:40:09;;;;;;;2.63;0.82;;;12.20;79.30;;;;;;5009400;28;20069;-82
2021/10/26 03:42:36;;;;;;;2.47;0.90;;;12.20;79.30;;;;;;5022488;28;20030;-82
2021/10/26 03:45:06;;;;;;;3.17;0.90;;;12.20;79.30;;;;;;5009202;28;20045;-82
2021/10/26 03:47:40;;;;;;;1.90;0.68;;;12.20;79.30;;;;;;5006825;28;20019;-82
2021/10/26 03:50:09;;;;;;;3.53;1.05;;;12.20;79.30;;;;;;5025988;28;20094;-83
2021/10/26 03:52:36;;;;;;;1.63;0.90;;;12.20;79.30;;;;;;5008850;28;20038;-85
2021/10/26 03:55:04;;;;;;;2.38;0.77;;;12.20;79.30;;;;;;5026980;28;20045;-85
2021/10/26 03:57:30;;;;;;;3.85;1.23;;;12.20;79.30;;;;;;5024424;28;20571;-83
2021/10/26 03:59:57;;;;;;;3.10;1.15;;;12.20;79.30;;;;;;5010727;28;20066;-82
2021/10/26 04:02:28;;;;;;;2.65;0.77;;;12.20;79.30;;;;;;5017419;28;20054;-80
2021/10/26 04:05:06;;;;;;;2.00;1.23;;;12.20;79.30;;;;;;5009483;28;20043;-81
2021/10/26 04:07:33;;;;;;;1.77;0.80;;;12.20;79.30;;;;;;5010089;28;20030;-80
2021/10/26 04:10:12;;;;;;;3.35;0.75;;;12.20;79.30;;;;;;5012292;28;20482;-77
2021/10/26 04:12:39;;;;;;;3.22;1.45;;;12.20;79.20;;;;;;5012975;28;20022;-82
2021/10/26 04:15:05;;;;;;;3.80;1.40;;;12.20;79.30;;;;;;5011998;28;20125;-82
2021/10/26 04:17:33;;;;;;;2.40;1.38;;;12.20;79.30;;;;;;5026177;28;20060;-81
2021/10/26 04:19:59;;;;;;;1.02;0.80;;;12.20;79.30;;;;;;5016768;28;20038;-80
2021/10/26 04:22:28;;;;;;;1.98;0.88;;;12.20;79.30;;;;;;5029093;28;20038;-82
2021/10/26 04:24:54;;;;;;;3.22;1.30;;;12.20;79.30;;;;;;5032588;28;20026;-83
2021/10/26 04:27:23;;;;;;;5.30;1.30;;;12.20;79.30;;;;;;5047923;28;20033;-78
2021/10/26 04:29:49;;;;;;;2.00;0.80;;;12.20;79.30;;;;;;5050738;28;20034;-82
2021/10/26 04:32:17;;;;;;;2.90;0.70;;;12.20;79.30;;;;;;5049431;28;20092;-80
2021/10/26 04:34:46;;;;;;;2.50;0.90;;;12.20;79.30;;;;;;5033126;28;20034;-82
2021/10/26 04:37:12;;;;;;;2.78;0.82;;;12.20;79.30;;;;;;5005701;28;20089;-79
2021/10/26 04:39:41;;;;;;;1.55;0.80;;;12.20;79.30;;;;;;5009149;28;20039;-78
2021/10/26 04:42:09;;;;;;;3.97;0.90;;;12.20;79.30;;;;;;4992769;28;20462;-79
2021/10/26 04:44:38;;;;;;;3.25;1.02;;;12.20;79.30;;;;;;5020950;28;20042;-82
2021/10/26 04:47:04;;;;;;;2.15;1.38;;;12.20;79.30;;;;;;5040261;28;20068;-80
2021/10/26 04:49:30;;;;;;;2.63;0.80;;;12.20;79.30;;;;;;5025251;28;20042;-78
2021/10/26 04:51:57;;;;;;;2.92;1.02;;;12.20;79.30;;;;;;5009645;28;20052;-79
2021/10/26 04:54:23;;;;;;;3.35;1.17;;;12.20;79.30;;;;;;5010019;28;20037;-80
2021/10/26 04:57:01;;;;;;;5.18;1.00;;;12.30;79.50;;;;;;5009574;28;20022;-80
2021/10/26 04:59:30;;;;;;;1.70;0.80;;;12.30;80.00;;;;;;5009615;28;20045;-80
2021/10/26 05:01:56;;;;;;;4.32;0.98;;;12.30;79.50;;;;;;5009856;28;20026;-79
2021/10/26 05:04:23;;;;;;;3.33;0.75;;;12.20;79.30;;;;;;4997565;28;20038;-77
2021/10/26 05:06:50;;;;;;;4.20;1.20;;;12.30;79.50;;;;;;5024168;28;20022;-79
2021/10/26 05:09:16;;;;;;;1.10;0.85;;;12.30;79.50;;;;;;5007797;28;20045;-79
2021/10/26 05:11:42;;;;;;;2.80;0.80;;;12.30;79.50;;;;;;5022599;28;20050;-76
2021/10/26 05:14:11;;;;;;;4.18;1.10;;;12.30;79.50;;;;;;5027019;28;20447;-81
2021/10/26 05:16:57;;;;;;;2.05;1.00;;;12.30;79.50;;;;;;5018675;28;20042;-80
2021/10/26 05:19:41;;;;;;;3.00;1.05;;;12.30;79.50;;;;;;5008448;28;20034;-75
2021/10/26 05:22:37;;;;;;;2.17;0.80;;;12.30;79.50;;;;;;4988114;28;20094;-78
2021/10/26 05:25:38;;;;;;;3.40;1.10;;;12.30;79.40;;;;;;5009563;28;20042;-78
2021/10/26 05:28:13;;;;;;;1.88;0.95;;;12.30;79.40;;;;;;5003607;28;20026;-79
2021/10/26 05:30:40;;;;;;;2.40;0.90;;;12.30;79.40;;;;;;5000979;28;20117;-78
2021/10/26 05:33:06;;;;;;;3.85;1.27;;;12.30;79.50;;;;;;4990892;28;20045;-79
2021/10/26 05:35:32;;;;;;;3.13;0.90;;;12.30;79.40;;;;;;5006917;28;20038;-79
2021/10/26 05:37:58;;;;;;;1.63;0.68;;;12.30;79.40;;;;;;5010104;28;20031;-80
2021/10/26 05:40:24;;;;;;;2.55;0.70;;;12.30;79.40;;;;;;5003103;28;20049;-79
2021/10/26 05:42:50;;;;;;;2.58;0.88;;;12.30;79.40;;;;;;4998108;28;20072;-80
2021/10/26 05:45:18;;;;;;;2.22;0.80;;;12.40;79.60;;;;;;5022818;28;20129;-79
2021/10/26 05:47:45;;;;;;;1.50;0.80;;;12.40;79.60;;;;;;5019785;28;20117;-80
2021/10/26 05:50:12;;;;;;;2.42;0.88;;;12.40;79.60;;;;;;5001532;28;20467;-84
2021/10/26 05:52:38;;;;;;;2.28;0.75;;;12.40;79.60;;;;;;5004340;28;20026;-80
2021/10/26 05:55:05;;;;;;;4.10;0.98;;;12.40;79.60;;;;;;5006494;28;20505;-77
2021/10/26 05:57:32;;;;;;;1.88;0.63;;;12.40;79.60;;;;;;4991943;28;20033;-79
2021/10/26 05:59:59;;;;;;;3.00;0.90;;;12.40;79.60;;;;;;5021767;28;20477;-82
2021/10/26 06:02:24;;;;;;;3.33;0.90;;;12.40;79.60;;;;;;5003426;28;20062;-81
2021/10/26 06:04:54;;;;;;;3.88;0.80;;;12.40;79.60;;;;;;4990181;28;20482;-81
2021/10/26 06:07:20;;;;;;;1.80;0.70;;;12.40;79.60;;;;;;4988716;28;20496;-79
2021/10/26 06:09:47;;;;;;;2.40;1.02;;;12.40;79.60;;;;;;4989307;28;20104;-78
2021/10/26 06:12:20;;;;;;;4.88;1.67;;;12.40;79.60;;;;;;4989355;28;20069;-86
2021/10/26 06:14:46;;;;;;;4.25;0.93;;;12.40;79.60;;;;;;4990315;28;20030;-85
2021/10/26 06:17:12;;;;;;;3.20;1.38;;;12.40;79.60;;;;;;5013716;28;20109;-79
2021/10/26 06:19:38;;;;;;;7.78;1.70;;;12.40;79.60;;;;;;4990628;28;20042;-82
2021/10/26 06:22:04;;;;;;;5.50;2.13;;;12.40;79.70;;;;;;4986392;28;20440;-80
2021/10/26 06:24:31;;;;;;;3.75;1.20;;;12.50;80.20;;;;;;4986272;28;20058;-86
2021/10/26 06:27:00;;;;;;;5.40;1.20;;;12.50;80.40;;;;;;4989106;28;20038;-81
2021/10/26 06:29:26;;;;;;;4.15;1.25;;;12.60;80.70;;;;;;4986825;28;20034;-82
2021/10/26 06:32:18;;;;;;;4.90;1.45;;;12.50;80.50;;;;;;4986208;28;20042;-80
2021/10/26 06:34:44;;;;;;;3.60;1.50;;;12.60;80.70;;;;;;4988628;28;20030;-82
2021/10/26 06:37:12;;;;;;;2.53;1.20;;;12.60;80.70;;;;;;4988338;28;20041;-82
2021/10/26 06:39:38;;;;;;;3.35;1.08;;;12.60;80.80;;;;;;4986526;28;20027;-79
2021/10/26 06:42:04;;;;;;;2.13;1.10;;;12.60;80.70;;;;;;4985932;28;20041;-82
2021/10/26 06:44:56;;;;;;;4.40;1.08;;;12.60;80.70;;;;;;4986057;28;20055;-80
2021/10/26 06:48:00;;;;;;;4.32;1.00;;;12.60;80.70;;;;;;5005693;28;20084;-82
2021/10/26 06:50:59;;;;;;;4.45;1.98;;;12.60;80.70;;;;;;4977418;28;20559;-80
2021/10/26 06:53:54;;;;;;;4.40;1.30;;;12.60;80.60;;;;;;4975658;28;20085;-79
2021/10/26 06:56:38;;;;;;;2.65;0.98;;;12.60;80.50;;;;;;4968305;28;20074;-79
2021/10/26 06:59:23;;;;;;;2.95;1.00;;;12.60;80.50;;;;;;4985229;28;20492;-81
2021/10/26 07:02:12;;;;;;;3.53;2.25;;;12.60;80.50;;;;;;4978157;28;20050;-79
2021/10/26 07:05:23;;;;;;;3.38;1.08;;;12.60;80.50;;;;;;4988912;28;20227;-85
2021/10/26 07:08:09;;;;;;;3.30;1.55;;;12.60;80.50;;;;;;4988521;28;20121;-81
2021/10/26 07:10:35;;;;;;;2.90;1.10;;;12.60;80.50;;;;;;4986917;28;20117;-83
2021/10/26 07:13:11;;;;;;;4.97;1.75;;;12.60;80.50;;;;;;4996406;28;20023;-83
2021/10/26 07:15:38;;;;;;;1.85;0.80;;;12.70;80.60;;;;;;4968092;28;20027;-80
2021/10/26 07:18:04;;;;;;;1.88;0.98;;;12.60;80.40;;;;;;4991722;28;20056;-84
2021/10/26 07:20:30;;;;;;;4.90;1.77;;;12.60;80.50;;;;;;4986952;28;20027;-85
2021/10/26 07:23:28;;;;;;;3.67;1.30;;;12.70;80.70;;;;;;4988243;28;20151;-86
2021/10/26 07:26:21;;;;;;;2.50;0.97;;;12.70;80.60;;;;;;4987768;28;20520;-84
2021/10/26 07:28:48;;;;;;;4.90;1.35;;;12.70;80.50;;;;;;5014721;28;20100;-83
2021/10/26 07:31:15;;;;;;;1.58;1.00;;;12.80;80.70;;;;;;4990477;28;20040;-85
2021/10/26 07:33:42;;;;;;;4.82;1.45;;;12.80;80.60;;;;;;5023440;28;20508;-83
2021/10/26 07:36:10;;;;;;;5.47;1.30;;;12.80;80.60;;;;;;5007676;28;20084;-84
2021/10/26 07:38:40;;;;;;;4.50;1.13;;;12.80;80.60;;;;;;5005876;28;20448;-85
2021/10/26 07:41:08;;;;;;;2.80;1.10;;;12.80;80.50;;;;;;5006811;28;20034;-81
2021/10/26 07:43:52;;;;;;;2.45;1.30;;;12.80;80.50;;;;;;4988699;28;20038;-86
2021/10/26 07:46:37;;;;;;;1.90;1.00;;;12.90;80.60;;;;;;4995445;28;20080;-86
2021/10/26 07:49:06;;;;;;;5.63;1.75;;;12.90;80.60;;;;;;4978633;28;20125;-85
2021/10/26 07:51:34;;;;;;;6.63;1.58;;;12.90;80.60;;;;;;4987394;28;20038;-86
2021/10/26 07:54:01;;;;;;;3.13;1.55;;;12.90;80.60;;;;;;4987121;28;20042;-83
2021/10/26 07:56:27;;;;;;;1.58;0.95;;;12.90;80.60;;;;;;5003268;28;20030;-83
2021/10/26 07:58:55;;;;;;;10.85;1.83;;;13.00;80.70;;;;;;4998457;28;20037;-83
2021/10/26 08:01:21;;;;;;;3.03;1.25;;;13.00;80.70;;;;;;5022030;28;20105;-90
2021/10/26 08:04:00;;;;;;;3.25;1.13;;;13.00;80.70;;;;;;5005521;28;20046;-80
2021/10/26 08:06:26;;;;;;;2.03;1.02;;;13.00;80.70;;;;;;4989403;28;20048;-87
2021/10/26 08:08:53;;;;;;;6.65;1.08;;;13.10;80.80;;;;;;4987297;28;20739;-89
2021/10/26 08:11:20;;;;;;;2.80;0.90;;;13.10;80.80;;;;;;5003164;28;20489;-87
2021/10/26 08:13:50;;;;;;;4.60;1.20;;;13.10;80.80;;;;;;5003991;28;20074;-88
2021/10/26 08:16:18;;;;;;;3.78;1.52;;;13.10;80.70;;;;;;4992796;28;20036;-91
2021/10/26 08:18:45;;;;;;;2.78;0.82;;;13.10;80.70;;;;;;4996515;28;20027;-83
2021/10/26 08:21:14;;;;;;;4.50;1.13;;;13.20;81.30;;;;;;4987179;28;20117;-81
2021/10/26 08:23:43;;;;;;;2.72;1.23;;;13.20;80.80;;;;;;4970425;28;20046;-82
2021/10/26 08:26:16;;;;;;;5.95;1.40;;;13.20;80.80;;;;;;4988196;28;20137;-78
2021/10/26 08:28:42;;;;;;;3.67;1.15;;;13.20;80.70;;;;;;5002460;28;20080;-83
2021/10/26 08:31:45;;;;;;;3.92;1.35;;;13.30;80.90;;;;;;4969785;28;20034;-84
2021/10/26 08:36:31;;;;;;;3.42;1.50;;;13.40;80.90;;;;;;4986059;28;20034;-82
2021/10/26 08:38:58;;;;;;;4.72;1.60;;;13.40;80.90;;;;;;4985418;28;20030;-80
2021/10/26 08:41:26;;;;;;;2.33;1.00;;;13.40;80.90;;;;;;5002171;28;20039;-80
2021/10/26 08:43:52;;;;;;;3.28;1.38;;;13.40;80.80;;;;;;4986960;28;20050;-81
2021/10/26 08:46:19;;;;;;;3.13;1.00;;;13.50;80.90;;;;;;4990539;28;20121;-84
2021/10/26 08:48:50;;;;;;;3.47;1.25;;;13.50;80.90;;;;;;5021878;28;20133;-77
2021/10/26 08:51:41;;;;;;;3.40;0.98;;;13.60;81.00;;;;;;5006844;28;20030;-81
2021/10/26 08:54:10;;;;;;;4.10;1.23;;;13.60;81.00;;;;;;4988097;28;20038;-81
2021/10/26 08:56:36;;;;;;;2.00;0.93;;;13.70;81.10;;;;;;4989091;28;20065;-83
2021/10/26 08:59:21;;;;;;;2.78;1.35;;;13.70;81.00;;;;;;5006447;28;20030;-87
2021/10/26 09:02:00;;;;;;;2.58;1.00;;;13.80;81.10;;;;;;5010208;28;20033;-84
2021/10/26 09:04:34;;;;;;;3.70;0.98;;;13.90;81.20;;;;;;4990852;28;20084;-81
2021/10/26 09:07:05;;;;;;;5.38;1.40;;;14.00;81.20;;;;;;5006849;28;20031;-80
2021/10/26 09:09:35;;;;;;;7.18;1.90;;;14.10;81.20;;;;;;4989368;28;20033;-80
2021/10/26 09:18:07;;;;;;;3.80;2.00;;;14.50;82.50;;;;;;5008093;28;20048;-80
2021/10/26 09:20:57;;;;;;;6.40;2.50;;;14.70;82.50;;;;;;4996128;28;20030;-78
2021/10/26 09:23:32;;;;;;;8.70;1.92;;;14.80;82.60;;;;;;4981488;28;20390;-77
2021/10/26 09:26:00;;;;;;;9.30;2.42;;;14.90;82.60;;;;;;4988827;28;20045;-77
2021/10/26 09:28:27;;;;;;;23.70;2.80;;;15.00;82.70;;;;;;4990052;28;20034;-77
2021/10/26 09:31:07;;;;;;;7.32;1.63;;;15.10;82.80;;;;;;4989574;28;20030;-78
2021/10/26 09:33:42;;;;;;;5.90;1.65;;;15.20;82.90;;;;;;5000184;28;20268;-81
2021/10/26 09:36:28;;;;;;;3.65;1.52;;;15.20;82.70;;;;;;5009039;28;20441;-81
2021/10/26 09:39:16;;;;;;;4.60;1.48;;;15.30;82.70;;;;;;5008691;28;20038;-83
2021/10/26 09:41:52;;;;;;;5.82;2.13;;;15.40;82.80;;;;;;5007393;28;20068;-81
2021/10/26 09:44:20;;;;;;;3.65;1.13;;;15.40;82.60;;;;;;4990401;28;20664;-84
2021/10/26 09:46:55;;;;;;;7.32;1.95;;;15.50;82.70;;;;;;4989164;28;20026;-84
2021/10/26 09:49:34;;;;;;;4.55;1.63;;;15.50;82.60;;;;;;4988611;28;20515;-82
2021/10/26 09:52:12;;;;;;;4.32;1.63;;;15.60;82.60;;;;;;4989367;28;20319;-83
2021/10/26 09:54:40;;;;;;;4.38;1.38;;;15.60;82.50;;;;;;4969526;28;20027;-83
2021/10/26 09:57:08;;;;;;;5.10;1.58;;;15.60;82.40;;;;;;4969301;28;20039;-84
2021/10/26 09:59:36;;;;;;;4.43;1.38;;;15.60;82.30;;;;;;5001226;28;20423;-81
2021/10/26 10:02:03;;;;;;;9.77;2.42;;;15.60;82.20;;;;;;4989367;28;20030;-81
2021/10/26 10:04:34;;;;;;;6.50;1.77;;;15.70;82.30;;;;;;5001395;28;20496;-82
2021/10/26 10:07:01;;;;;;;6.78;1.77;;;15.70;82.20;;;;;;5008447;28;20021;-82
2021/10/26 10:09:27;;;;;;;4.50;1.50;;;15.60;82.00;;;;;;5006598;28;20069;-84
2021/10/26 10:12:07;;;;;;;5.95;1.70;;;15.70;82.20;;;;;;5008396;28;20493;-83
2021/10/26 10:14:37;;;;;;;4.88;1.55;;;15.60;81.90;;;;;;4968997;28;20142;-82
2021/10/26 10:17:12;;;;;;;3.60;1.75;;;15.60;81.90;;;;;;4989911;28;20076;-84
2021/10/26 10:19:40;;;;;;;3.00;1.10;;;15.60;81.90;;;;;;5005429;28;20117;-83
2021/10/26 10:22:07;;;;;;;3.55;1.25;;;15.60;81.80;;;;;;5004457;28;20512;-83
2021/10/26 10:24:41;;;;;;;4.70;1.30;;;15.70;82.00;;;;;;5009531;28;20064;-85
2021/10/26 10:27:08;;;;;;;2.63;1.20;;;15.70;81.90;;;;;;5009240;28;20032;-86
2021/10/26 10:29:35;;;;;;;6.38;1.92;;;15.60;81.80;;;;;;4991239;28;20446;-83
2021/10/26 10:32:02;;;;;;;5.28;1.35;;;15.60;81.70;;;;;;4988774;28;20644;-85
2021/10/26 10:34:29;;;;;;;5.38;1.85;;;15.60;81.70;;;;;;4988125;28;20030;-84
2021/10/26 10:36:57;;;;;;;8.38;2.42;;;15.60;81.80;;;;;;4988702;28;20034;-89
2021/10/26 10:39:33;;;;;;;5.60;1.92;;;15.70;82.10;;;;;;4988727;28;20438;-84
2021/10/26 10:42:23;;;;;;;5.00;1.60;;;15.80;82.20;;;;;;4988673;28;20113;-85
2021/10/26 10:44:55;;;;;;;5.68;1.83;;;16.00;82.40;;;;;;4969035;28;20039;-86
2021/10/26 10:47:39;;;;;;;6.93;1.98;;;16.20;82.50;;;;;;4993776;28;20116;-80
2021/10/26 10:50:23;;;;;;;6.00;1.90;;;16.30;82.30;;;;;;4967614;28;20039;-85
2021/10/26 10:53:07;;;;;;;;;;;16.40;82.20;;;;;;4981764;28;20032;-82
2021/10/26 10:55:35;;;;;;;4.40;1.60;;;16.50;82.20;;;;;;5006571;28;20113;-84
2021/10/26 10:58:23;;;;;;;3.70;1.70;;;16.60;82.10;;;;;;5018997;28;20026;-83
2021/10/26 11:01:09;;;;;;;6.20;1.65;;;16.70;82.20;;;;;;4988200;28;20296;-88
2021/10/26 11:03:35;;;;;;;5.00;1.80;;;16.80;82.30;;;;;;4987363;28;20049;-77
2021/10/26 11:06:01;;;;;;;5.05;2.28;;;16.90;82.30;;;;;;4985554;28;20117;-79
2021/10/26 11:08:47;;;;;;;4.20;2.25;;;17.00;82.30;;;;;;4980987;28;20083;-82
2021/10/26 11:11:17;;;;;;;3.33;1.10;;;17.10;82.30;;;;;;4974158;28;20126;-80
2021/10/26 11:13:44;;;;;;;4.60;2.03;;;17.20;82.20;;;;;;5000125;28;20030;-78
2021/10/26 11:16:12;;;;;;;6.78;2.22;;;17.30;82.20;;;;;;5006395;28;20036;-85
2021/10/26 11:18:52;;;;;;;6.82;2.20;;;17.30;82.20;;;;;;5005721;28;20025;-85
2021/10/26 11:21:21;;;;;;;6.38;2.08;;;17.40;82.20;;;;;;5007456;28;20473;-80
2021/10/26 11:23:49;;;;;;;5.72;2.13;;;17.50;82.10;;;;;;4991921;28;20169;-81
2021/10/26 11:26:30;;;;;;;8.45;2.55;;;17.50;82.00;;;;;;4987575;28;20034;-82
2021/10/26 11:28:58;;;;;;;8.45;1.83;;;17.50;82.00;;;;;;4998602;28;20389;-82
2021/10/26 11:31:27;;;;;;;5.68;2.28;;;17.60;82.20;;;;;;5022295;28;20029;-82
2021/10/26 11:34:24;;;;;;;6.80;1.67;;;17.60;82.20;;;;;;5006618;28;20477;-79
2021/10/26 11:37:02;;;;;;;7.05;2.20;;;17.70;82.40;;;;;;5006904;28;20037;-83
2021/10/26 11:39:32;;;;;;;6.65;1.65;;;17.80;82.50;;;;;;5004874;28;20031;-82
2021/10/26 11:41:59;;;;;;;6.38;2.42;;;17.90;82.60;;;;;;5002482;28;20057;-88
2021/10/26 11:44:26;;;;;;;6.07;1.98;;;18.00;82.60;;;;;;4987361;28;20430;-86
2021/10/26 11:46:53;;;;;;;6.55;1.55;;;18.10;82.70;;;;;;4988596;28;20030;-85
2021/10/26 11:49:24;;;;;;;9.55;2.25;;;18.20;82.80;;;;;;4987155;28;20051;-83
2021/10/26 11:51:58;;;;;;;8.70;2.92;;;18.20;82.70;;;;;;4987156;28;20031;-85
2021/10/26 11:54:25;;;;;;;6.55;2.03;;;18.30;82.80;;;;;;5005935;28;20029;-80
2021/10/26 11:56:51;;;;;;;8.55;1.95;;;18.40;82.90;;;;;;5006795;28;20118;-79
2021/10/26 11:59:26;;;;;;;9.10;2.88;;;18.50;82.90;;;;;;5007765;28;20030;-77
2021/10/26 12:02:15;;;;;;;12.25;2.53;;;18.60;82.90;;;;;;4985862;28;20027;-79
2021/10/26 12:04:59;;;;;;;8.27;1.60;;;18.70;82.70;;;;;;4970359;28;20069;-80
2021/10/26 12:07:28;;;;;;;8.55;2.50;;;18.80;82.60;;;;;;4987140;28;20393;-80
2021/10/26 12:10:05;;;;;;;8.55;2.20;;;18.80;82.40;;;;;;4985843;28;20460;-82
2021/10/26 12:12:33;;;;;;;5.78;2.70;;;18.90;82.40;;;;;;4986963;28;20030;-82
2021/10/26 12:15:05;;;;;;;6.68;1.90;;;18.90;82.30;;;;;;5001946;28;20499;-80
2021/10/26 12:17:39;;;;;;;11.10;2.63;;;19.00;82.50;;;;;;4987020;28;20065;-80
2021/10/26 12:20:07;;;;;;;20.83;3.50;;;19.00;82.30;;;;;;4971875;28;20455;-79
2021/10/26 12:22:43;;;;;;;6.25;2.30;;;19.10;82.30;;;;;;4988121;28;20030;-82
2021/10/26 12:25:44;;;;;;;6.40;2.63;;;19.20;82.20;;;;;;5021826;28;20034;-82
2021/10/26 12:28:11;;;;;;;5.63;1.95;;;19.30;82.20;;;;;;4970267;28;20493;-82
2021/10/26 12:30:41;;;;;;;9.88;2.53;;;19.30;81.90;;;;;;4991217;28;20261;-80
2021/10/26 12:33:19;;;;;;;8.35;2.55;;;19.40;81.80;;;;;;4990779;28;20034;-83
2021/10/26 12:35:54;;;;;;;5.40;1.70;;;19.40;81.60;;;;;;4990341;28;20037;-84
2021/10/26 12:38:39;;;;;;;10.02;2.15;;;19.40;81.40;;;;;;4989362;28;20414;-85
2021/10/26 12:41:17;;;;;;;6.90;2.28;;;19.40;81.20;;;;;;4989421;28;20089;-81
2021/10/26 12:44:01;;;;;;;8.70;1.95;;;19.40;81.10;;;;;;5005199;28;20038;-84
2021/10/26 12:46:27;;;;;;;10.65;2.88;;;19.40;81.10;;;;;;5010141;28;20255;-84
2021/10/26 12:49:12;;;;;;;5.97;1.70;;;19.40;81.00;;;;;;4999143;28;20057;-82
2021/10/26 12:51:38;;;;;;;5.90;1.80;;;19.40;80.90;;;;;;5001983;28;20117;-82
2021/10/26 12:54:16;;;;;;;4.90;1.88;;;19.40;80.80;;;;;;4969948;28;20027;-81
2021/10/26 12:57:00;;;;;;;5.40;1.80;;;19.40;80.60;;;;;;4969732;28;20031;-84
2021/10/26 12:59:28;;;;;;;6.57;1.98;;;19.40;80.50;;;;;;5000485;28;20069;-85
2021/10/26 13:02:09;;;;;;;6.75;1.63;;;19.40;80.50;;;;;;5009981;28;20026;-79
2021/10/26 13:04:40;;;;;;;4.72;2.20;;;19.40;80.40;;;;;;5024574;28;20076;-84
2021/10/26 13:07:08;;;;;;;8.98;2.08;;;19.40;80.40;;;;;;5010095;28;20026;-86
2021/10/26 13:09:37;;;;;;;5.32;1.73;;;19.40;80.30;;;;;;5009051;28;20036;-77
2021/10/26 13:12:06;;;;;;;6.88;2.08;;;19.40;80.30;;;;;;4992563;28;20022;-81
2021/10/26 13:14:54;;;;;;;6.75;1.85;;;19.40;80.20;;;;;;5008565;28;20481;-84
2021/10/26 13:17:32;;;;;;;5.97;2.00;;;19.40;80.10;;;;;;5010714;28;20108;-84